sensor_id;sensor_type;location;lat;lon;timestamp;pressure;altitude;pressure_sealevel;temperature;humidity
50103;BME280;35993;52.604;10.078;2022-10-16T00:00:54;100689.50;;;12.94;100.00
50103;BME280;35993;52.604;10.078;2022-10-16T00:03:19;100689.06;;;12.97;100.00
50103;BME280;35993;52.604;10.078;2022-10-16T00:05:45;100692.03;;;12.95;100.00
50103;BME280;35993;52.604;10.078;2022-10-16T00:08:20;100692.34;;;12.87;100.00
50103;BME280;35993;52.604;10.078;2022-10-16T00:10:45;100690.91;;;12.85;100.00
50103;BME280;35993;52.604;10.078;2022-10-16T00:13:11;100687.22;;;12.79;100.00
50103;BME280;35993;52.604;10.078;2022-10-16T00:15:37;100695.28;;;12.74;100.00
50103;BME280;35993;52.604;10.078;2022-10-16T00:18:04;100697.16;;;12.73;100.00
50103;BME280;35993;52.604;10.078;2022-10-16T00:20:31;100699.06;;;12.73;100.00
50103;BME280;35993;52.604;10.078;2022-10-16T00:23:17;100696.31;;;12.73;100.00
50103;BME280;35993;52.604;10.078;2022-10-16T00:25:43;100697.00;;;12.68;100.00
50103;BME280;35993;52.604;10.078;2022-10-16T00:28:09;100699.31;;;12.53;100.00
50103;BME280;35993;52.604;10.078;2022-10-16T00:30:38;100699.66;;;12.44;100.00
50103;BME280;35993;52.604;10.078;2022-10-16T00:33:03;100703.53;;;12.37;100.00
50103;BME280;35993;52.604;10.078;2022-10-16T00:35:30;100707.59;;;12.46;100.00
50103;BME280;35993;52.604;10.078;2022-10-16T00:37:56;100699.19;;;12.48;100.00
50103;BME280;35993;52.604;10.078;2022-10-16T00:40:21;100706.91;;;12.51;100.00
50103;BME280;35993;52.604;10.078;2022-10-16T00:42:47;100713.94;;;12.40;100.00
50103;BME280;35993;52.604;10.078;2022-10-16T00:45:12;100717.72;;;12.39;100.00
50103;BME280;35993;52.604;10.078;2022-10-16T00:47:45;100714.41;;;12.37;100.00
50103;BME280;35993;52.604;10.078;2022-10-16T00:50:27;100717.66;;;12.45;100.00
50103;BME280;35993;52.604;10.078;2022-10-16T00:52:54;100716.94;;;12.50;100.00
50103;BME280;35993;52.604;10.078;2022-10-16T00:55:21;100715.81;;;12.58;100.00
50103;BME280;35993;52.604;10.078;2022-10-16T00:57:47;100717.56;;;12.52;100.00
50103;BME280;35993;52.604;10.078;2022-10-16T01:00:20;100732.22;;;12.51;100.00
50103;BME280;35993;52.604;10.078;2022-10-16T01:02:58;100725.50;;;12.54;100.00
50103;BME280;35993;52.604;10.078;2022-10-16T01:05:32;100722.41;;;12.50;100.00
50103;BME280;35993;52.604;10.078;2022-10-16T01:08:13;100718.47;;;12.46;100.00
50103;BME280;35993;52.604;10.078;2022-10-16T01:11:20;100720.22;;;12.40;100.00
50103;BME280;35993;52.604;10.078;2022-10-16T01:13:53;100720.44;;;12.39;100.00
50103;BME280;35993;52.604;10.078;2022-10-16T01:16:31;100724.84;;;12.40;100.00
50103;BME280;35993;52.604;10.078;2022-10-16T01:19:09;100727.78;;;12.38;100.00
50103;BME280;35993;52.604;10.078;2022-10-16T01:21:42;100729.47;;;12.39;100.00
50103;BME280;35993;52.604;10.078;2022-10-16T01:24:52;100729.47;;;12.39;100.00
50103;BME280;35993;52.604;10.078;2022-10-16T01:27:19;100731.44;;;12.32;100.00
50103;BME280;35993;52.604;10.078;2022-10-16T01:30:08;100724.00;;;12.39;100.00
50103;BME280;35993;52.604;10.078;2022-10-16T01:32:36;100725.16;;;12.32;100.00
50103;BME280;35993;52.604;10.078;2022-10-16T01:35:16;100732.19;;;12.21;100.00
50103;BME280;35993;52.604;10.078;2022-10-16T01:40:16;100741.56;;;12.06;100.00
50103;BME280;35993;52.604;10.078;2022-10-16T01:42:48;100747.59;;;12.08;100.00
50103;BME280;35993;52.604;10.078;2022-10-16T01:45:17;100742.38;;;12.07;100.00
50103;BME280;35993;52.604;10.078;2022-10-16T01:47:44;100744.28;;;12.06;100.00
50103;BME280;35993;52.604;10.078;2022-10-16T01:50:11;100747.41;;;12.10;100.00
50103;BME280;35993;52.604;10.078;2022-10-16T01:52:53;100743.53;;;12.18;100.00
50103;BME280;35993;52.604;10.078;2022-10-16T01:55:30;100741.72;;;12.11;100.00
50103;BME280;35993;52.604;10.078;2022-10-16T01:58:02;100750.66;;;12.19;100.00
50103;BME280;35993;52.604;10.078;2022-10-16T02:00:31;100739.97;;;12.17;100.00
50103;BME280;35993;52.604;10.078;2022-10-16T02:02:57;100731.88;;;12.10;100.00
50103;BME280;35993;52.604;10.078;2022-10-16T02:05:46;100745.34;;;12.05;100.00
50103;BME280;35993;52.604;10.078;2022-10-16T02:08:10;100750.84;;;11.99;100.00
50103;BME280;35993;52.604;10.078;2022-10-16T02:10:38;100748.78;;;11.94;100.00
50103;BME280;35993;52.604;10.078;2022-10-16T02:13:15;100742.94;;;11.97;100.00
50103;BME280;35993;52.604;10.078;2022-10-16T02:15:42;100752.53;;;12.00;100.00
50103;BME280;35993;52.604;10.078;2022-10-16T02:18:09;100751.34;;;11.89;100.00
50103;BME280;35993;52.604;10.078;2022-10-16T02:20:53;100742.50;;;11.93;100.00
50103;BME280;35993;52.604;10.078;2022-10-16T02:23:36;100749.41;;;11.96;100.00
50103;BME280;35993;52.604;10.078;2022-10-16T02:26:09;100749.06;;;11.86;100.00
50103;BME280;35993;52.604;10.078;2022-10-16T02:28:41;100748.19;;;11.92;100.00
50103;BME280;35993;52.604;10.078;2022-10-16T02:31:10;100757.47;;;11.84;100.00
50103;BME280;35993;52.604;10.078;2022-10-16T02:33:39;100759.56;;;11.82;100.00
50103;BME280;35993;52.604;10.078;2022-10-16T02:36:14;100769.25;;;11.78;100.00
50103;BME280;35993;52.604;10.078;2022-10-16T02:38:40;100768.84;;;11.74;100.00
50103;BME280;35993;52.604;10.078;2022-10-16T02:41:06;100776.38;;;11.72;100.00
50103;BME280;35993;52.604;10.078;2022-10-16T02:43:41;100777.81;;;11.75;100.00
50103;BME280;35993;52.604;10.078;2022-10-16T02:46:07;100776.16;;;11.74;100.00
50103;BME280;35993;52.604;10.078;2022-10-16T02:48:33;100774.56;;;11.66;100.00
50103;BME280;35993;52.604;10.078;2022-10-16T02:51:00;100775.78;;;11.70;100.00
50103;BME280;35993;52.604;10.078;2022-10-16T02:53:25;100772.84;;;11.72;100.00
50103;BME280;35993;52.604;10.078;2022-10-16T02:55:51;100768.22;;;11.72;100.00
50103;BME280;35993;52.604;10.078;2022-10-16T02:58:16;100770.56;;;11.69;100.00
50103;BME280;35993;52.604;10.078;2022-10-16T03:00:42;100775.47;;;11.60;100.00
50103;BME280;35993;52.604;10.078;2022-10-16T03:03:07;100774.19;;;11.62;100.00
50103;BME280;35993;52.604;10.078;2022-10-16T03:05:33;100770.91;;;11.54;100.00
50103;BME280;35993;52.604;10.078;2022-10-16T03:07:59;100771.72;;;11.54;100.00
50103;BME280;35993;52.604;10.078;2022-10-16T03:10:26;100773.81;;;11.59;100.00
50103;BME280;35993;52.604;10.078;2022-10-16T03:12:53;100773.63;;;11.54;100.00
50103;BME280;35993;52.604;10.078;2022-10-16T03:15:18;100770.91;;;11.54;100.00
50103;BME280;35993;52.604;10.078;2022-10-16T03:17:44;100770.53;;;11.50;100.00
50103;BME280;35993;52.604;10.078;2022-10-16T03:20:09;100772.03;;;11.46;100.00
50103;BME280;35993;52.604;10.078;2022-10-16T03:22:53;100781.66;;;11.42;100.00
50103;BME280;35993;52.604;10.078;2022-10-16T03:25:19;100780.84;;;11.41;100.00
50103;BME280;35993;52.604;10.078;2022-10-16T03:27:44;100781.66;;;11.42;100.00
50103;BME280;35993;52.604;10.078;2022-10-16T03:30:30;100788.00;;;11.36;100.00
50103;BME280;35993;52.604;10.078;2022-10-16T03:32:55;100792.81;;;11.34;100.00
50103;BME280;35993;52.604;10.078;2022-10-16T03:35:22;100796.34;;;11.34;100.00
50103;BME280;35993;52.604;10.078;2022-10-16T03:37:48;100780.31;;;11.26;100.00
50103;BME280;35993;52.604;10.078;2022-10-16T03:40:14;100784.13;;;11.18;100.00
50103;BME280;35993;52.604;10.078;2022-10-16T03:42:42;100781.66;;;11.17;100.00
50103;BME280;35993;52.604;10.078;2022-10-16T03:45:11;100789.00;;;11.09;100.00
50103;BME280;35993;52.604;10.078;2022-10-16T03:47:36;100780.03;;;11.09;100.00
50103;BME280;35993;52.604;10.078;2022-10-16T03:50:07;100782.94;;;11.07;100.00
50103;BME280;35993;52.604;10.078;2022-10-16T03:52:33;100773.78;;;11.02;100.00
50103;BME280;35993;52.604;10.078;2022-10-16T03:54:59;100780.50;;;10.99;100.00
50103;BME280;35993;52.604;10.078;2022-10-16T03:57:24;100773.16;;;10.99;100.00
50103;BME280;35993;52.604;10.078;2022-10-16T03:59:50;100778.22;;;10.96;100.00
50103;BME280;35993;52.604;10.078;2022-10-16T04:02:16;100777.78;;;10.99;100.00
50103;BME280;35993;52.604;10.078;2022-10-16T04:04:42;100769.84;;;10.97;100.00
50103;BME280;35993;52.604;10.078;2022-10-16T04:07:07;100769.69;;;10.92;100.00
50103;BME280;35993;52.604;10.078;2022-10-16T04:09:33;100770.75;;;10.85;100.00
50103;BME280;35993;52.604;10.078;2022-10-16T04:11:58;100782.22;;;10.87;100.00
50103;BME280;35993;52.604;10.078;2022-10-16T04:14:39;100778.47;;;10.88;100.00
50103;BME280;35993;52.604;10.078;2022-10-16T04:17:04;100776.56;;;10.95;100.00
50103;BME280;35993;52.604;10.078;2022-10-16T04:19:30;100777.66;;;10.87;100.00
50103;BME280;35993;52.604;10.078;2022-10-16T04:21:55;100789.09;;;10.89;100.00
50103;BME280;35993;52.604;10.078;2022-10-16T04:24:21;100793.44;;;10.97;100.00
50103;BME280;35993;52.604;10.078;2022-10-16T04:26:46;100800.78;;;10.96;100.00
50103;BME280;35993;52.604;10.078;2022-10-16T04:29:12;100807.00;;;11.04;100.00
50103;BME280;35993;52.604;10.078;2022-10-16T04:31:48;100807.38;;;11.14;100.00
50103;BME280;35993;52.604;10.078;2022-10-16T04:34:13;100809.00;;;11.15;100.00
50103;BME280;35993;52.604;10.078;2022-10-16T04:36:39;100805.22;;;11.23;100.00
50103;BME280;35993;52.604;10.078;2022-10-16T04:39:16;100795.81;;;11.25;100.00
50103;BME280;35993;52.604;10.078;2022-10-16T04:41:42;100801.00;;;11.27;100.00
50103;BME280;35993;52.604;10.078;2022-10-16T04:44:08;100810.63;;;11.29;100.00
50103;BME280;35993;52.604;10.078;2022-10-16T04:46:33;100813.94;;;11.31;100.00
50103;BME280;35993;52.604;10.078;2022-10-16T04:48:59;100817.72;;;11.30;100.00
50103;BME280;35993;52.604;10.078;2022-10-16T04:51:25;100816.44;;;11.33;100.00
50103;BME280;35993;52.604;10.078;2022-10-16T04:53:51;100811.38;;;11.37;100.00
50103;BME280;35993;52.604;10.078;2022-10-16T04:56:17;100813.00;;;11.44;100.00
50103;BME280;35993;52.604;10.078;2022-10-16T04:58:42;100809.00;;;11.47;100.00
50103;BME280;35993;52.604;10.078;2022-10-16T05:01:08;100804.19;;;11.49;100.00
50103;BME280;35993;52.604;10.078;2022-10-16T05:03:34;100805.63;;;11.52;100.00
50103;BME280;35993;52.604;10.078;2022-10-16T05:06:17;100813.84;;;11.45;100.00
50103;BME280;35993;52.604;10.078;2022-10-16T05:08:42;100809.22;;;11.45;100.00
50103;BME280;35993;52.604;10.078;2022-10-16T05:11:08;100822.81;;;11.52;100.00
50103;BME280;35993;52.604;10.078;2022-10-16T05:13:33;100837.25;;;11.46;100.00
50103;BME280;35993;52.604;10.078;2022-10-16T05:15:59;100839.13;;;11.45;100.00
50103;BME280;35993;52.604;10.078;2022-10-16T05:18:24;100848.56;;;11.43;100.00
50103;BME280;35993;52.604;10.078;2022-10-16T05:20:50;100851.69;;;11.46;100.00
50103;BME280;35993;52.604;10.078;2022-10-16T05:23:15;100854.41;;;11.46;100.00
50103;BME280;35993;52.604;10.078;2022-10-16T05:25:41;100846.88;;;11.48;100.00
50103;BME280;35993;52.604;10.078;2022-10-16T05:28:06;100851.25;;;11.50;100.00
50103;BME280;35993;52.604;10.078;2022-10-16T05:30:32;100846.19;;;11.53;100.00
50103;BME280;35993;52.604;10.078;2022-10-16T05:32:58;100846.59;;;11.57;100.00
50103;BME280;35993;52.604;10.078;2022-10-16T05:35:23;100845.16;;;11.54;100.00
50103;BME280;35993;52.604;10.078;2022-10-16T05:37:49;100847.03;;;11.54;100.00
50103;BME280;35993;52.604;10.078;2022-10-16T05:40:15;100857.47;;;11.57;100.00
50103;BME280;35993;52.604;10.078;2022-10-16T05:42:42;100850.34;;;11.56;100.00
50103;BME280;35993;52.604;10.078;2022-10-16T05:45:09;100851.38;;;11.61;100.00
50103;BME280;35993;52.604;10.078;2022-10-16T05:47:35;100854.91;;;11.62;100.00
50103;BME280;35993;52.604;10.078;2022-10-16T05:50:01;100864.97;;;11.61;100.00
50103;BME280;35993;52.604;10.078;2022-10-16T05:52:27;100866.47;;;11.57;100.00
50103;BME280;35993;52.604;10.078;2022-10-16T05:54:52;100860.41;;;11.55;100.00
50103;BME280;35993;52.604;10.078;2022-10-16T05:57:18;100865.41;;;11.58;100.00
50103;BME280;35993;52.604;10.078;2022-10-16T05:59:43;100860.81;;;11.59;100.00
50103;BME280;35993;52.604;10.078;2022-10-16T06:02:13;100858.69;;;11.61;100.00
50103;BME280;35993;52.604;10.078;2022-10-16T06:04:39;100869.72;;;11.66;100.00
50103;BME280;35993;52.604;10.078;2022-10-16T06:07:04;100870.97;;;11.70;100.00
50103;BME280;35993;52.604;10.078;2022-10-16T06:09:30;100868.25;;;11.70;100.00
50103;BME280;35993;52.604;10.078;2022-10-16T06:11:55;100877.41;;;11.76;100.00
50103;BME280;35993;52.604;10.078;2022-10-16T06:14:21;100874.69;;;11.76;100.00
50103;BME280;35993;52.604;10.078;2022-10-16T06:16:46;100878.22;;;11.76;100.00
50103;BME280;35993;52.604;10.078;2022-10-16T06:19:12;100868.59;;;11.80;100.00
50103;BME280;35993;52.604;10.078;2022-10-16T06:21:38;100867.91;;;11.85;100.00
50103;BME280;35993;52.604;10.078;2022-10-16T06:24:03;100881.91;;;11.89;100.00
50103;BME280;35993;52.604;10.078;2022-10-16T06:26:30;100869.75;;;11.91;100.00
50103;BME280;35993;52.604;10.078;2022-10-16T06:28:57;100880.41;;;11.93;100.00
50103;BME280;35993;52.604;10.078;2022-10-16T06:31:23;100881.47;;;11.92;100.00
50103;BME280;35993;52.604;10.078;2022-10-16T06:33:53;100887.72;;;11.99;100.00
50103;BME280;35993;52.604;10.078;2022-10-16T06:36:19;100882.22;;;12.06;100.00
50103;BME280;35993;52.604;10.078;2022-10-16T06:38:46;100889.94;;;12.09;100.00
50103;BME280;35993;52.604;10.078;2022-10-16T06:41:14;100902.91;;;12.13;100.00
50103;BME280;35993;52.604;10.078;2022-10-16T06:43:42;100897.81;;;12.17;100.00
50103;BME280;35993;52.604;10.078;2022-10-16T06:46:11;100895.72;;;12.19;100.00
50103;BME280;35993;52.604;10.078;2022-10-16T06:48:38;100910.09;;;12.26;100.00
50103;BME280;35993;52.604;10.078;2022-10-16T06:51:10;100910.47;;;12.30;100.00
50103;BME280;35993;52.604;10.078;2022-10-16T06:53:39;100913.34;;;12.35;100.00
50103;BME280;35993;52.604;10.078;2022-10-16T06:56:13;100920.44;;;12.43;100.00
50103;BME280;35993;52.604;10.078;2022-10-16T06:58:40;100912.78;;;12.52;100.00
50103;BME280;35993;52.604;10.078;2022-10-16T07:01:06;100931.56;;;12.60;100.00
50103;BME280;35993;52.604;10.078;2022-10-16T07:03:32;100929.38;;;12.69;100.00
50103;BME280;35993;52.604;10.078;2022-10-16T07:06:01;100929.91;;;12.77;100.00
50103;BME280;35993;52.604;10.078;2022-10-16T07:08:27;100945.94;;;12.86;100.00
50103;BME280;35993;52.604;10.078;2022-10-16T07:11:00;100939.13;;;12.95;100.00
50103;BME280;35993;52.604;10.078;2022-10-16T07:13:26;100944.28;;;13.03;100.00
50103;BME280;35993;52.604;10.078;2022-10-16T07:15:52;100937.69;;;13.11;100.00
50103;BME280;35993;52.604;10.078;2022-10-16T07:18:17;100943.28;;;13.16;100.00
50103;BME280;35993;52.604;10.078;2022-10-16T07:20:43;100950.78;;;13.21;100.00
50103;BME280;35993;52.604;10.078;2022-10-16T07:23:09;100945.03;;;13.29;100.00
50103;BME280;35993;52.604;10.078;2022-10-16T07:25:35;100947.28;;;13.32;100.00
50103;BME280;35993;52.604;10.078;2022-10-16T07:28:00;100952.50;;;13.34;100.00
50103;BME280;35993;52.604;10.078;2022-10-16T07:30:26;100955.00;;;13.35;100.00
50103;BME280;35993;52.604;10.078;2022-10-16T07:32:51;100957.91;;;13.40;100.00
50103;BME280;35993;52.604;10.078;2022-10-16T07:35:17;100970.03;;;13.44;100.00
50103;BME280;35993;52.604;10.078;2022-10-16T07:37:46;100969.47;;;13.54;100.00
50103;BME280;35993;52.604;10.078;2022-10-16T07:40:11;100968.66;;;13.66;100.00
50103;BME280;35993;52.604;10.078;2022-10-16T07:42:37;100976.31;;;13.75;100.00
50103;BME280;35993;52.604;10.078;2022-10-16T07:45:03;100977.88;;;13.83;100.00
50103;BME280;35993;52.604;10.078;2022-10-16T07:47:29;100985.50;;;13.93;100.00
50103;BME280;35993;52.604;10.078;2022-10-16T07:49:55;100997.50;;;14.04;100.00
50103;BME280;35993;52.604;10.078;2022-10-16T07:52:21;100995.53;;;14.11;100.00
50103;BME280;35993;52.604;10.078;2022-10-16T07:54:46;101001.25;;;14.21;100.00
50103;BME280;35993;52.604;10.078;2022-10-16T07:57:30;101011.13;;;14.34;100.00
50103;BME280;35993;52.604;10.078;2022-10-16T08:00:09;101011.38;;;14.45;100.00
50103;BME280;35993;52.604;10.078;2022-10-16T08:02:39;101019.69;;;14.50;100.00
50103;BME280;35993;52.604;10.078;2022-10-16T08:05:06;101016.50;;;14.53;100.00
50103;BME280;35993;52.604;10.078;2022-10-16T08:07:52;101013.91;;;14.58;100.00
50103;BME280;35993;52.604;10.078;2022-10-16T08:10:19;101011.53;;;14.62;100.00
50103;BME280;35993;52.604;10.078;2022-10-16T08:12:45;101004.53;;;14.66;100.00
50103;BME280;35993;52.604;10.078;2022-10-16T08:15:11;101009.63;;;14.74;100.00
50103;BME280;35993;52.604;10.078;2022-10-16T08:17:37;101009.50;;;14.81;100.00
50103;BME280;35993;52.604;10.078;2022-10-16T08:20:03;101004.16;;;14.86;100.00
50103;BME280;35993;52.604;10.078;2022-10-16T08:22:28;101011.91;;;14.89;100.00
50103;BME280;35993;52.604;10.078;2022-10-16T08:24:54;101017.50;;;14.94;100.00
50103;BME280;35993;52.604;10.078;2022-10-16T08:27:19;101032.81;;;14.95;100.00
50103;BME280;35993;52.604;10.078;2022-10-16T08:29:45;101033.78;;;14.89;100.00
50103;BME280;35993;52.604;10.078;2022-10-16T08:32:10;101040.44;;;14.81;100.00
50103;BME280;35993;52.604;10.078;2022-10-16T08:34:36;101037.09;;;14.79;100.00
50103;BME280;35993;52.604;10.078;2022-10-16T08:37:01;101039.13;;;14.84;100.00
50103;BME280;35993;52.604;10.078;2022-10-16T08:39:27;101047.56;;;14.82;100.00
50103;BME280;35993;52.604;10.078;2022-10-16T08:47:30;101057.16;;;15.08;100.00
50103;BME280;35993;52.604;10.078;2022-10-16T08:50:08;101052.31;;;15.11;100.00
50103;BME280;35993;52.604;10.078;2022-10-16T08:52:39;101055.88;;;15.23;100.00
50103;BME280;35993;52.604;10.078;2022-10-16T08:55:43;101066.06;;;15.28;100.00
50103;BME280;35993;52.604;10.078;2022-10-16T08:58:15;101075.81;;;15.35;100.00
50103;BME280;35993;52.604;10.078;2022-10-16T09:00:42;101068.56;;;15.41;100.00
50103;BME280;35993;52.604;10.078;2022-10-16T09:11:53;101082.69;;;15.62;100.00
50103;BME280;35993;52.604;10.078;2022-10-16T09:20:18;101093.69;;;15.79;100.00
50103;BME280;35993;52.604;10.078;2022-10-16T09:22:44;101089.41;;;15.83;100.00
50103;BME280;35993;52.604;10.078;2022-10-16T09:25:34;101086.56;;;15.89;100.00
50103;BME280;35993;52.604;10.078;2022-10-16T09:28:00;101086.22;;;15.86;100.00
50103;BME280;35993;52.604;10.078;2022-10-16T09:30:28;101091.53;;;15.93;100.00
50103;BME280;35993;52.604;10.078;2022-10-16T09:32:57;101091.28;;;15.94;100.00
50103;BME280;35993;52.604;10.078;2022-10-16T09:35:43;101099.69;;;16.04;98.93
50103;BME280;35993;52.604;10.078;2022-10-16T09:38:29;101097.41;;;16.13;98.81
50103;BME280;35993;52.604;10.078;2022-10-16T09:41:00;101107.38;;;16.19;97.27
50103;BME280;35993;52.604;10.078;2022-10-16T09:46:20;101108.19;;;16.20;96.58
50103;BME280;35993;52.604;10.078;2022-10-16T09:48:49;101115.44;;;16.26;95.24
50103;BME280;35993;52.604;10.078;2022-10-16T09:51:21;101116.78;;;16.41;93.87
50103;BME280;35993;52.604;10.078;2022-10-16T09:53:48;101119.84;;;16.56;93.43
50103;BME280;35993;52.604;10.078;2022-10-16T09:56:25;101122.91;;;16.77;93.90
50103;BME280;35993;52.604;10.078;2022-10-16T09:58:57;101127.50;;;16.88;92.97
50103;BME280;35993;52.604;10.078;2022-10-16T10:01:44;101134.50;;;16.96;91.60
50103;BME280;35993;52.604;10.078;2022-10-16T10:04:10;101138.66;;;16.98;92.33
50103;BME280;35993;52.604;10.078;2022-10-16T10:06:40;101151.06;;;16.72;89.55
50103;BME280;35993;52.604;10.078;2022-10-16T10:09:23;101138.72;;;16.41;90.24
50103;BME280;35993;52.604;10.078;2022-10-16T10:16:46;101145.13;;;16.46;91.42
50103;BME280;35993;52.604;10.078;2022-10-16T10:19:17;101143.56;;;16.50;92.62
50103;BME280;35993;52.604;10.078;2022-10-16T10:21:43;101140.63;;;16.69;92.45
50103;BME280;35993;52.604;10.078;2022-10-16T10:24:16;101145.84;;;16.70;92.62
50103;BME280;35993;52.604;10.078;2022-10-16T10:26:49;101140.63;;;16.86;92.46
50103;BME280;35993;52.604;10.078;2022-10-16T10:35:34;101146.75;;;16.76;89.38
50103;BME280;35993;52.604;10.078;2022-10-16T10:40:49;101148.47;;;16.48;90.56
50103;BME280;35993;52.604;10.078;2022-10-16T10:46:12;101163.84;;;16.20;91.73
50103;BME280;35993;52.604;10.078;2022-10-16T10:57:02;101173.31;;;15.89;88.74
50103;BME280;35993;52.604;10.078;2022-10-16T11:05:07;101171.38;;;16.42;85.58
50103;BME280;35993;52.604;10.078;2022-10-16T11:07:49;101157.44;;;16.61;84.72
50103;BME280;35993;52.604;10.078;2022-10-16T11:10:22;101176.91;;;16.76;84.82
50103;BME280;35993;52.604;10.078;2022-10-16T11:13:05;101174.34;;;16.86;83.66
50103;BME280;35993;52.604;10.078;2022-10-16T11:15:37;101173.63;;;16.91;84.02
50103;BME280;35993;52.604;10.078;2022-10-16T11:18:08;101172.06;;;16.95;83.07
50103;BME280;35993;52.604;10.078;2022-10-16T11:20:47;101173.22;;;16.99;82.35
50103;BME280;35993;52.604;10.078;2022-10-16T11:23:25;101173.88;;;17.07;82.70
50103;BME280;35993;52.604;10.078;2022-10-16T11:25:53;101184.47;;;17.15;81.45
50103;BME280;35993;52.604;10.078;2022-10-16T11:28:32;101174.81;;;17.12;79.71
50103;BME280;35993;52.604;10.078;2022-10-16T11:31:22;101177.78;;;17.11;80.00
50103;BME280;35993;52.604;10.078;2022-10-16T11:34:10;101162.91;;;17.24;79.48
50103;BME280;35993;52.604;10.078;2022-10-16T11:36:58;101181.97;;;17.30;77.95
50103;BME280;35993;52.604;10.078;2022-10-16T11:39:26;101177.28;;;17.31;77.78
50103;BME280;35993;52.604;10.078;2022-10-16T11:42:19;101183.78;;;17.42;77.78
50103;BME280;35993;52.604;10.078;2022-10-16T11:47:58;101185.81;;;17.51;75.82
50103;BME280;35993;52.604;10.078;2022-10-16T11:50:45;101185.91;;;17.57;75.51
50103;BME280;35993;52.604;10.078;2022-10-16T11:53:23;101193.31;;;17.56;74.44
50103;BME280;35993;52.604;10.078;2022-10-16T11:55:51;101190.97;;;17.65;74.39
50103;BME280;35993;52.604;10.078;2022-10-16T11:58:41;101191.38;;;17.74;73.88
50103;BME280;35993;52.604;10.078;2022-10-16T12:01:38;101195.41;;;17.88;74.54
50103;BME280;35993;52.604;10.078;2022-10-16T12:06:44;101208.84;;;17.67;75.00
50103;BME280;35993;52.604;10.078;2022-10-16T12:09:17;101224.84;;;17.53;74.90
50103;BME280;35993;52.604;10.078;2022-10-16T12:11:45;101214.13;;;17.52;76.07
50103;BME280;35993;52.604;10.078;2022-10-16T12:17:20;101228.16;;;17.56;75.87
50103;BME280;35993;52.604;10.078;2022-10-16T12:23:01;101217.56;;;17.81;75.12
50103;BME280;35993;52.604;10.078;2022-10-16T12:28:06;101227.91;;;17.40;75.25
50103;BME280;35993;52.604;10.078;2022-10-16T12:30:34;101217.56;;;17.25;75.13
50103;BME280;35993;52.604;10.078;2022-10-16T12:33:04;101225.78;;;17.25;75.50
50103;BME280;35993;52.604;10.078;2022-10-16T12:35:33;101224.19;;;17.29;74.87
50103;BME280;35993;52.604;10.078;2022-10-16T12:38:08;101234.91;;;17.14;75.50
50103;BME280;35993;52.604;10.078;2022-10-16T12:40:39;101227.16;;;17.11;75.77
50103;BME280;35993;52.604;10.078;2022-10-16T12:45:45;101224.59;;;17.38;75.89
50103;BME280;35993;52.604;10.078;2022-10-16T12:48:20;101239.41;;;17.37;75.68
50103;BME280;35993;52.604;10.078;2022-10-16T12:50:47;101242.72;;;17.22;75.86
50103;BME280;35993;52.604;10.078;2022-10-16T12:53:25;101245.22;;;17.07;75.63
50103;BME280;35993;52.604;10.078;2022-10-16T12:58:50;101247.38;;;17.39;74.26
50103;BME280;35993;52.604;10.078;2022-10-16T13:01:42;101256.13;;;17.52;73.82
50103;BME280;35993;52.604;10.078;2022-10-16T13:04:21;101259.53;;;17.60;74.43
50103;BME280;35993;52.604;10.078;2022-10-16T13:10:06;101261.44;;;17.76;73.62
50103;BME280;35993;52.604;10.078;2022-10-16T13:16:00;101269.88;;;17.92;72.36
50103;BME280;35993;52.604;10.078;2022-10-16T13:21:38;101276.56;;;17.96;71.76
50103;BME280;35993;52.604;10.078;2022-10-16T13:24:25;101273.28;;;17.99;72.23
50103;BME280;35993;52.604;10.078;2022-10-16T13:27:09;101267.53;;;18.00;71.40
50103;BME280;35993;52.604;10.078;2022-10-16T13:29:37;101275.44;;;18.14;71.83
50103;BME280;35993;52.604;10.078;2022-10-16T13:32:09;101270.00;;;18.19;70.64
50103;BME280;35993;52.604;10.078;2022-10-16T13:34:47;101281.41;;;18.28;71.31
50103;BME280;35993;52.604;10.078;2022-10-16T13:37:22;101269.31;;;18.29;71.09
50103;BME280;35993;52.604;10.078;2022-10-16T13:39:48;101285.22;;;18.27;71.33
50103;BME280;35993;52.604;10.078;2022-10-16T13:42:26;101281.94;;;18.30;69.68
50103;BME280;35993;52.604;10.078;2022-10-16T13:44:54;101286.03;;;18.05;70.32
50103;BME280;35993;52.604;10.078;2022-10-16T13:47:28;101293.19;;;18.06;70.03
50103;BME280;35993;52.604;10.078;2022-10-16T13:50:15;101287.03;;;17.99;70.91
50103;BME280;35993;52.604;10.078;2022-10-16T13:52:42;101298.91;;;17.88;71.24
50103;BME280;35993;52.604;10.078;2022-10-16T13:55:16;101296.50;;;17.91;71.04
50103;BME280;35993;52.604;10.078;2022-10-16T13:57:43;101291.38;;;17.95;70.77
50103;BME280;35993;52.604;10.078;2022-10-16T14:00:23;101294.19;;;18.00;71.02
50103;BME280;35993;52.604;10.078;2022-10-16T14:02:55;101300.50;;;18.00;71.28
50103;BME280;35993;52.604;10.078;2022-10-16T14:05:22;101297.19;;;17.98;72.67
50103;BME280;35993;52.604;10.078;2022-10-16T14:07:50;101306.19;;;17.94;72.52
50103;BME280;35993;52.604;10.078;2022-10-16T14:10:25;101305.75;;;17.85;72.53
50103;BME280;35993;52.604;10.078;2022-10-16T14:12:59;101310.16;;;17.86;73.12
50103;BME280;35993;52.604;10.078;2022-10-16T14:15:30;101319.25;;;17.87;73.11